somalimemo.net alexa rank chart, somalimemo.net alexa rank daily changes

somalimemo.net alexa rank chart, somalimemo.net alexa rank daily changes

somalimemo.net
Actual rank:
278 136

RANK HISTORY

Date Rank Diff
2018/07/12 278 136 +17 900
2018/07/11 260 236 +86 196
2018/07/10 174 040 +59 351
2018/07/09 114 689 -120 936
2018/07/08 235 625 +10 487
2018/07/07 225 138 -99 844
2018/07/06 324 982 +112 889
2018/07/05 212 093 +53 887
2018/07/04 158 206 +104 985
2018/07/03 53 221 -395 557
2018/07/02 448 778 +198 316
2018/07/01 250 462 -40 733
2018/06/30 291 195 +53 825
2018/06/29 237 370 -13 997
2018/06/28 251 367 +38 202
2018/06/27 213 165 +64 137
2018/06/26 149 028 -291 484
2018/06/25 440 512 +230 576
2018/06/24 209 936 -97 283
2018/06/23 307 219 +94 422
2018/06/22 212 797 -18 834
2018/06/21 231 631 +71 883
2018/06/20 159 748 +42 930
2018/06/19 116 818 -83 923
2018/06/18 200 741 -5 141
2018/06/17 205 882 -148 387
2018/06/16 354 269 +133 698
2018/06/15 220 571 +66 283
2018/06/14 154 288 -181 974
2018/06/13 336 262 +163 467
2018/06/12 172 795 +38 095
2018/06/11 134 700 -43 557
2018/06/10 178 257 -23 251
2018/06/09 201 508 -25 269
2018/06/08 226 777 +87 132
2018/06/07 139 645 -167 306
2018/06/06 306 951 +157 631
2018/06/05 149 320 +41 434
2018/06/04 107 886 -9 342
2018/06/03 117 228 -66 257
2018/06/02 183 485 -183 546
2018/06/01 367 031 +170 624
2018/05/31 196 407 -6 043
2018/05/30 202 450 +54 562
2018/05/29 147 888 +23 958
2018/05/28 123 930 -82 817
2018/05/27 206 747 -18 256
2018/05/26 225 003 +43 108
2018/05/25 181 895 -104 073
2018/05/24 285 968 -376 987
2018/05/23 662 955 +564 950
2018/05/22 98 005 -124 626
2018/05/21 222 631 -171 398
2018/05/20 394 029 +124 071
2018/05/19 269 958 +31 298
2018/05/18 238 660 -150 736
2018/05/17 389 396 +169 334
2018/05/16 220 062 +22 614
2018/05/15 197 448 +28 541
2018/05/14 168 907 +25 906
2018/05/13 143 001

WIDGET FOR YOUR SITE

DOMAINS WITH THE NEAREST RANK

Domain Rank
wurwurz.tumblr.com 278 131
yahadut.tv 278 132
yncrea.fr 278 133
yogamoves.fr 278 134
zoo-mulhouse.com 278 135
somalimemo.net 278 136
1001crash.com 278 137
disney.id 278 138
farmville2free.com 278 139
madness.co.uk 278 140
elago.com 278 141

DOMAINS WITH THE NEAREST RANK BY TLD .net

Domain Rank
smallstation.net 278 071
sourceinteractive.net 278 077
synthesio.net 278 091
tadalafilforsale.net 278 092
thecodersbreakfast.net 278 100
somalimemo.net 278 136
saitebi.net 278 179
kineticvibe.net 278 204
ver-filmesonline.net 278 253
precheck.net 278 263
cws.net 278 270